sensor_id;sensor_type;location;lat;lon;timestamp;P1;durP1;ratioP1;P2;durP2;ratioP2
75890;SDS011;64571;47.512;19.054;2023-05-14T00:02:01;12.57;;;7.53;;
75890;SDS011;64571;47.512;19.054;2023-05-14T00:05:04;11.98;;;7.32;;
75890;SDS011;64571;47.512;19.054;2023-05-14T00:08:07;11.48;;;7.32;;
75890;SDS011;64571;47.512;19.054;2023-05-14T00:11:09;12.48;;;8.07;;
75890;SDS011;64571;47.512;19.054;2023-05-14T00:14:12;11.57;;;7.50;;
75890;SDS011;64571;47.512;19.054;2023-05-14T00:17:14;13.18;;;7.82;;
75890;SDS011;64571;47.512;19.054;2023-05-14T00:20:17;11.88;;;7.20;;
75890;SDS011;64571;47.512;19.054;2023-05-14T00:23:23;13.57;;;7.55;;
75890;SDS011;64571;47.512;19.054;2023-05-14T00:26:25;13.35;;;7.43;;
75890;SDS011;64571;47.512;19.054;2023-05-14T00:29:28;12.83;;;7.23;;
75890;SDS011;64571;47.512;19.054;2023-05-14T00:32:31;11.82;;;7.37;;
75890;SDS011;64571;47.512;19.054;2023-05-14T00:35:34;11.90;;;7.55;;
75890;SDS011;64571;47.512;19.054;2023-05-14T00:38:37;11.48;;;7.57;;
75890;SDS011;64571;47.512;19.054;2023-05-14T00:41:41;11.02;;;7.45;;
75890;SDS011;64571;47.512;19.054;2023-05-14T00:44:44;11.80;;;7.67;;
75890;SDS011;64571;47.512;19.054;2023-05-14T00:47:50;13.88;;;7.00;;
75890;SDS011;64571;47.512;19.054;2023-05-14T00:50:54;11.63;;;6.97;;
75890;SDS011;64571;47.512;19.054;2023-05-14T00:53:57;12.05;;;7.10;;
75890;SDS011;64571;47.512;19.054;2023-05-14T00:56:59;12.07;;;7.53;;
75890;SDS011;64571;47.512;19.054;2023-05-14T01:00:03;11.87;;;6.57;;
75890;SDS011;64571;47.512;19.054;2023-05-14T01:03:06;14.55;;;7.57;;
75890;SDS011;64571;47.512;19.054;2023-05-14T01:09:17;10.65;;;6.97;;
75890;SDS011;64571;47.512;19.054;2023-05-14T01:15:44;10.83;;;6.70;;
75890;SDS011;64571;47.512;19.054;2023-05-14T01:18:49;13.10;;;8.07;;
75890;SDS011;64571;47.512;19.054;2023-05-14T01:21:53;11.25;;;7.53;;
75890;SDS011;64571;47.512;19.054;2023-05-14T01:24:56;12.90;;;7.18;;
75890;SDS011;64571;47.512;19.054;2023-05-14T01:31:34;13.80;;;6.80;;
75890;SDS011;64571;47.512;19.054;2023-05-14T01:34:40;12.52;;;6.87;;
75890;SDS011;64571;47.512;19.054;2023-05-14T01:37:43;11.98;;;7.72;;
75890;SDS011;64571;47.512;19.054;2023-05-14T01:40:47;11.38;;;7.47;;
75890;SDS011;64571;47.512;19.054;2023-05-14T01:43:51;10.27;;;7.12;;
75890;SDS011;64571;47.512;19.054;2023-05-14T01:46:54;14.07;;;7.13;;
75890;SDS011;64571;47.512;19.054;2023-05-14T01:49:57;12.68;;;7.72;;
75890;SDS011;64571;47.512;19.054;2023-05-14T01:52:59;11.68;;;6.97;;
75890;SDS011;64571;47.512;19.054;2023-05-14T01:56:02;10.98;;;7.20;;
75890;SDS011;64571;47.512;19.054;2023-05-14T01:59:04;12.32;;;6.80;;
75890;SDS011;64571;47.512;19.054;2023-05-14T02:02:07;12.00;;;6.80;;
75890;SDS011;64571;47.512;19.054;2023-05-14T02:05:10;13.23;;;7.35;;
75890;SDS011;64571;47.512;19.054;2023-05-14T02:08:13;11.95;;;7.12;;
75890;SDS011;64571;47.512;19.054;2023-05-14T02:11:15;12.23;;;7.35;;
75890;SDS011;64571;47.512;19.054;2023-05-14T02:14:18;11.52;;;6.80;;
75890;SDS011;64571;47.512;19.054;2023-05-14T02:17:21;10.73;;;6.70;;
75890;SDS011;64571;47.512;19.054;2023-05-14T02:20:24;11.07;;;7.05;;
75890;SDS011;64571;47.512;19.054;2023-05-14T02:23:26;15.60;;;6.78;;
75890;SDS011;64571;47.512;19.054;2023-05-14T02:26:42;11.07;;;6.30;;
75890;SDS011;64571;47.512;19.054;2023-05-14T02:29:44;12.95;;;7.70;;
75890;SDS011;64571;47.512;19.054;2023-05-14T02:32:48;10.13;;;6.90;;
75890;SDS011;64571;47.512;19.054;2023-05-14T02:35:50;12.20;;;6.87;;
75890;SDS011;64571;47.512;19.054;2023-05-14T02:38:53;10.60;;;6.93;;
75890;SDS011;64571;47.512;19.054;2023-05-14T02:41:56;12.88;;;7.18;;
75890;SDS011;64571;47.512;19.054;2023-05-14T02:44:58;12.52;;;7.43;;
75890;SDS011;64571;47.512;19.054;2023-05-14T02:48:01;11.87;;;6.60;;
75890;SDS011;64571;47.512;19.054;2023-05-14T02:51:04;11.12;;;6.72;;
75890;SDS011;64571;47.512;19.054;2023-05-14T02:54:07;12.52;;;6.90;;
75890;SDS011;64571;47.512;19.054;2023-05-14T02:57:09;11.90;;;6.85;;
75890;SDS011;64571;47.512;19.054;2023-05-14T03:00:12;10.50;;;6.80;;
75890;SDS011;64571;47.512;19.054;2023-05-14T03:03:15;10.67;;;6.67;;
75890;SDS011;64571;47.512;19.054;2023-05-14T03:06:18;9.57;;;6.70;;
75890;SDS011;64571;47.512;19.054;2023-05-14T03:09:21;10.32;;;6.30;;
75890;SDS011;64571;47.512;19.054;2023-05-14T03:12:23;11.12;;;6.12;;
75890;SDS011;64571;47.512;19.054;2023-05-14T03:15:26;10.80;;;6.75;;
75890;SDS011;64571;47.512;19.054;2023-05-14T03:18:28;11.53;;;6.50;;
75890;SDS011;64571;47.512;19.054;2023-05-14T03:21:32;10.75;;;6.30;;
75890;SDS011;64571;47.512;19.054;2023-05-14T03:24:36;10.90;;;6.18;;
75890;SDS011;64571;47.512;19.054;2023-05-14T03:27:40;12.75;;;6.43;;
75890;SDS011;64571;47.512;19.054;2023-05-14T03:30:43;10.18;;;5.95;;
75890;SDS011;64571;47.512;19.054;2023-05-14T03:33:45;10.87;;;6.13;;
75890;SDS011;64571;47.512;19.054;2023-05-14T03:36:48;14.43;;;6.05;;
75890;SDS011;64571;47.512;19.054;2023-05-14T03:39:51;11.30;;;6.75;;
75890;SDS011;64571;47.512;19.054;2023-05-14T03:42:53;12.60;;;6.60;;
75890;SDS011;64571;47.512;19.054;2023-05-14T03:45:57;12.90;;;6.50;;
75890;SDS011;64571;47.512;19.054;2023-05-14T03:48:59;11.57;;;6.00;;
75890;SDS011;64571;47.512;19.054;2023-05-14T03:52:03;10.40;;;6.28;;
75890;SDS011;64571;47.512;19.054;2023-05-14T03:55:05;17.05;;;6.50;;
75890;SDS011;64571;47.512;19.054;2023-05-14T03:58:10;12.95;;;5.60;;
75890;SDS011;64571;47.512;19.054;2023-05-14T04:01:15;9.10;;;6.00;;
75890;SDS011;64571;47.512;19.054;2023-05-14T04:04:18;10.87;;;6.00;;
75890;SDS011;64571;47.512;19.054;2023-05-14T04:07:20;9.50;;;5.93;;
75890;SDS011;64571;47.512;19.054;2023-05-14T04:10:23;10.82;;;6.00;;
75890;SDS011;64571;47.512;19.054;2023-05-14T04:13:27;12.77;;;5.45;;
75890;SDS011;64571;47.512;19.054;2023-05-14T04:16:30;8.88;;;5.80;;
75890;SDS011;64571;47.512;19.054;2023-05-14T04:19:32;11.27;;;5.67;;
75890;SDS011;64571;47.512;19.054;2023-05-14T04:22:37;9.90;;;5.60;;
75890;SDS011;64571;47.512;19.054;2023-05-14T04:25:39;10.48;;;5.50;;
75890;SDS011;64571;47.512;19.054;2023-05-14T04:28:41;11.48;;;5.50;;
75890;SDS011;64571;47.512;19.054;2023-05-14T04:31:44;9.23;;;5.25;;
75890;SDS011;64571;47.512;19.054;2023-05-14T04:34:47;12.67;;;5.20;;
75890;SDS011;64571;47.512;19.054;2023-05-14T04:37:50;9.07;;;5.30;;
75890;SDS011;64571;47.512;19.054;2023-05-14T04:40:52;11.80;;;5.30;;
75890;SDS011;64571;47.512;19.054;2023-05-14T04:43:55;9.52;;;5.15;;
75890;SDS011;64571;47.512;19.054;2023-05-14T04:47:00;7.72;;;4.75;;
75890;SDS011;64571;47.512;19.054;2023-05-14T04:50:03;7.57;;;4.80;;
75890;SDS011;64571;47.512;19.054;2023-05-14T04:53:07;8.18;;;5.07;;
75890;SDS011;64571;47.512;19.054;2023-05-14T04:56:10;9.80;;;4.62;;
75890;SDS011;64571;47.512;19.054;2023-05-14T04:59:12;8.07;;;4.70;;
75890;SDS011;64571;47.512;19.054;2023-05-14T05:02:15;8.30;;;5.12;;
75890;SDS011;64571;47.512;19.054;2023-05-14T05:05:17;9.63;;;5.00;;
75890;SDS011;64571;47.512;19.054;2023-05-14T05:08:20;8.38;;;4.72;;
75890;SDS011;64571;47.512;19.054;2023-05-14T05:11:22;11.15;;;5.28;;
75890;SDS011;64571;47.512;19.054;2023-05-14T05:14:25;8.57;;;5.18;;
75890;SDS011;64571;47.512;19.054;2023-05-14T05:17:28;8.70;;;4.28;;
75890;SDS011;64571;47.512;19.054;2023-05-14T05:20:30;10.70;;;4.87;;
75890;SDS011;64571;47.512;19.054;2023-05-14T05:23:33;7.82;;;4.78;;
75890;SDS011;64571;47.512;19.054;2023-05-14T05:26:36;13.13;;;5.82;;
75890;SDS011;64571;47.512;19.054;2023-05-14T05:29:38;9.07;;;4.43;;
75890;SDS011;64571;47.512;19.054;2023-05-14T05:32:41;8.25;;;4.87;;
75890;SDS011;64571;47.512;19.054;2023-05-14T05:35:43;12.53;;;5.50;;
75890;SDS011;64571;47.512;19.054;2023-05-14T05:38:46;9.02;;;5.07;;
75890;SDS011;64571;47.512;19.054;2023-05-14T05:41:48;8.95;;;5.40;;
75890;SDS011;64571;47.512;19.054;2023-05-14T05:44:51;9.13;;;5.20;;
75890;SDS011;64571;47.512;19.054;2023-05-14T05:47:54;9.10;;;5.50;;
75890;SDS011;64571;47.512;19.054;2023-05-14T05:50:56;8.57;;;5.13;;
75890;SDS011;64571;47.512;19.054;2023-05-14T05:53:59;11.65;;;5.55;;
75890;SDS011;64571;47.512;19.054;2023-05-14T05:57:02;9.00;;;5.60;;
75890;SDS011;64571;47.512;19.054;2023-05-14T06:00:05;9.70;;;5.50;;
75890;SDS011;64571;47.512;19.054;2023-05-14T06:03:14;10.73;;;6.10;;
75890;SDS011;64571;47.512;19.054;2023-05-14T06:06:17;9.37;;;5.43;;
75890;SDS011;64571;47.512;19.054;2023-05-14T06:09:19;9.82;;;5.47;;
75890;SDS011;64571;47.512;19.054;2023-05-14T06:12:22;9.40;;;4.85;;
75890;SDS011;64571;47.512;19.054;2023-05-14T06:15:24;9.77;;;5.97;;
75890;SDS011;64571;47.512;19.054;2023-05-14T06:18:27;10.02;;;6.03;;
75890;SDS011;64571;47.512;19.054;2023-05-14T06:21:30;8.63;;;5.20;;
75890;SDS011;64571;47.512;19.054;2023-05-14T06:24:32;9.02;;;5.72;;
75890;SDS011;64571;47.512;19.054;2023-05-14T06:27:35;9.50;;;5.78;;
75890;SDS011;64571;47.512;19.054;2023-05-14T06:30:37;9.77;;;6.00;;
75890;SDS011;64571;47.512;19.054;2023-05-14T06:33:40;8.77;;;5.62;;
75890;SDS011;64571;47.512;19.054;2023-05-14T06:36:43;10.10;;;5.70;;
75890;SDS011;64571;47.512;19.054;2023-05-14T06:39:46;9.07;;;5.35;;
75890;SDS011;64571;47.512;19.054;2023-05-14T06:42:51;10.93;;;5.55;;
75890;SDS011;64571;47.512;19.054;2023-05-14T06:45:53;10.00;;;5.60;;
75890;SDS011;64571;47.512;19.054;2023-05-14T06:48:56;8.90;;;5.35;;
75890;SDS011;64571;47.512;19.054;2023-05-14T06:52:00;9.03;;;6.00;;
75890;SDS011;64571;47.512;19.054;2023-05-14T06:55:03;10.57;;;5.70;;
75890;SDS011;64571;47.512;19.054;2023-05-14T06:58:06;9.85;;;5.90;;
75890;SDS011;64571;47.512;19.054;2023-05-14T07:01:09;9.32;;;5.43;;
75890;SDS011;64571;47.512;19.054;2023-05-14T07:04:11;8.20;;;5.15;;
75890;SDS011;64571;47.512;19.054;2023-05-14T07:07:14;10.27;;;5.83;;
75890;SDS011;64571;47.512;19.054;2023-05-14T07:10:21;10.05;;;6.03;;
75890;SDS011;64571;47.512;19.054;2023-05-14T07:13:24;10.27;;;6.12;;
75890;SDS011;64571;47.512;19.054;2023-05-14T07:16:29;11.18;;;6.28;;
75890;SDS011;64571;47.512;19.054;2023-05-14T07:19:32;10.07;;;6.62;;
75890;SDS011;64571;47.512;19.054;2023-05-14T07:22:35;12.80;;;6.07;;
75890;SDS011;64571;47.512;19.054;2023-05-14T07:25:37;14.75;;;7.00;;
75890;SDS011;64571;47.512;19.054;2023-05-14T07:28:40;11.55;;;6.55;;
75890;SDS011;64571;47.512;19.054;2023-05-14T07:31:43;11.32;;;5.68;;
75890;SDS011;64571;47.512;19.054;2023-05-14T07:34:45;9.90;;;5.55;;
75890;SDS011;64571;47.512;19.054;2023-05-14T07:37:48;12.40;;;5.90;;
75890;SDS011;64571;47.512;19.054;2023-05-14T07:40:51;11.32;;;5.85;;
75890;SDS011;64571;47.512;19.054;2023-05-14T07:43:53;10.30;;;5.90;;
75890;SDS011;64571;47.512;19.054;2023-05-14T07:46:56;8.90;;;5.97;;
75890;SDS011;64571;47.512;19.054;2023-05-14T07:49:58;11.57;;;6.35;;
75890;SDS011;64571;47.512;19.054;2023-05-14T07:53:01;10.20;;;6.27;;
75890;SDS011;64571;47.512;19.054;2023-05-14T07:56:03;12.18;;;5.53;;
75890;SDS011;64571;47.512;19.054;2023-05-14T07:59:06;9.98;;;5.80;;
75890;SDS011;64571;47.512;19.054;2023-05-14T08:02:09;13.57;;;6.30;;
75890;SDS011;64571;47.512;19.054;2023-05-14T08:05:13;9.95;;;5.70;;
75890;SDS011;64571;47.512;19.054;2023-05-14T08:08:16;11.67;;;6.27;;
75890;SDS011;64571;47.512;19.054;2023-05-14T08:11:19;10.88;;;6.25;;
75890;SDS011;64571;47.512;19.054;2023-05-14T08:14:23;11.93;;;6.28;;
75890;SDS011;64571;47.512;19.054;2023-05-14T08:17:25;12.98;;;6.22;;
75890;SDS011;64571;47.512;19.054;2023-05-14T08:20:28;11.25;;;7.22;;
75890;SDS011;64571;47.512;19.054;2023-05-14T08:23:32;10.10;;;6.03;;
75890;SDS011;64571;47.512;19.054;2023-05-14T08:26:34;10.07;;;6.60;;
75890;SDS011;64571;47.512;19.054;2023-05-14T08:29:37;10.40;;;6.57;;
75890;SDS011;64571;47.512;19.054;2023-05-14T08:32:39;10.13;;;6.62;;
75890;SDS011;64571;47.512;19.054;2023-05-14T08:35:43;9.70;;;6.47;;
75890;SDS011;64571;47.512;19.054;2023-05-14T08:38:47;11.60;;;6.77;;
75890;SDS011;64571;47.512;19.054;2023-05-14T08:41:51;12.93;;;6.95;;
75890;SDS011;64571;47.512;19.054;2023-05-14T08:45:03;12.85;;;6.97;;
75890;SDS011;64571;47.512;19.054;2023-05-14T08:48:07;10.80;;;7.22;;
75890;SDS011;64571;47.512;19.054;2023-05-14T08:51:15;12.48;;;7.15;;
75890;SDS011;64571;47.512;19.054;2023-05-14T08:54:18;13.07;;;7.23;;
75890;SDS011;64571;47.512;19.054;2023-05-14T08:57:24;11.77;;;6.60;;
75890;SDS011;64571;47.512;19.054;2023-05-14T09:00:27;11.10;;;6.55;;
75890;SDS011;64571;47.512;19.054;2023-05-14T09:03:30;11.20;;;7.28;;
75890;SDS011;64571;47.512;19.054;2023-05-14T09:06:35;11.18;;;6.75;;
75890;SDS011;64571;47.512;19.054;2023-05-14T09:09:40;10.17;;;6.90;;
75890;SDS011;64571;47.512;19.054;2023-05-14T09:12:46;10.68;;;7.03;;
75890;SDS011;64571;47.512;19.054;2023-05-14T09:15:48;11.35;;;7.37;;
75890;SDS011;64571;47.512;19.054;2023-05-14T09:18:53;13.50;;;7.40;;
75890;SDS011;64571;47.512;19.054;2023-05-14T09:21:56;13.70;;;7.32;;
75890;SDS011;64571;47.512;19.054;2023-05-14T09:25:03;12.80;;;6.70;;
75890;SDS011;64571;47.512;19.054;2023-05-14T09:28:07;12.32;;;7.57;;
75890;SDS011;64571;47.512;19.054;2023-05-14T09:31:10;11.48;;;7.15;;
75890;SDS011;64571;47.512;19.054;2023-05-14T09:34:21;11.32;;;7.35;;
75890;SDS011;64571;47.512;19.054;2023-05-14T09:37:28;11.30;;;6.90;;
75890;SDS011;64571;47.512;19.054;2023-05-14T09:40:31;11.67;;;7.03;;
75890;SDS011;64571;47.512;19.054;2023-05-14T09:43:33;9.95;;;6.37;;
75890;SDS011;64571;47.512;19.054;2023-05-14T09:46:36;17.70;;;7.57;;
75890;SDS011;64571;47.512;19.054;2023-05-14T09:49:38;17.08;;;6.72;;
75890;SDS011;64571;47.512;19.054;2023-05-14T09:52:41;13.20;;;7.47;;
75890;SDS011;64571;47.512;19.054;2023-05-14T09:55:44;13.77;;;7.97;;
75890;SDS011;64571;47.512;19.054;2023-05-14T09:58:47;14.98;;;7.37;;
75890;SDS011;64571;47.512;19.054;2023-05-14T10:01:49;11.93;;;7.07;;
75890;SDS011;64571;47.512;19.054;2023-05-14T10:04:54;10.93;;;7.12;;
75890;SDS011;64571;47.512;19.054;2023-05-14T10:08:07;13.00;;;7.78;;
75890;SDS011;64571;47.512;19.054;2023-05-14T10:11:17;14.17;;;8.57;;
75890;SDS011;64571;47.512;19.054;2023-05-14T10:14:27;12.75;;;7.78;;
75890;SDS011;64571;47.512;19.054;2023-05-14T10:17:37;14.77;;;8.90;;
75890;SDS011;64571;47.512;19.054;2023-05-14T10:20:45;12.77;;;8.30;;
75890;SDS011;64571;47.512;19.054;2023-05-14T10:23:50;12.70;;;7.15;;
75890;SDS011;64571;47.512;19.054;2023-05-14T10:26:54;23.80;;;14.70;;
75890;SDS011;64571;47.512;19.054;2023-05-14T10:29:57;14.43;;;9.75;;
75890;SDS011;64571;47.512;19.054;2023-05-14T10:33:06;18.10;;;10.98;;
75890;SDS011;64571;47.512;19.054;2023-05-14T10:36:10;12.85;;;8.00;;
75890;SDS011;64571;47.512;19.054;2023-05-14T10:39:13;13.38;;;8.98;;
75890;SDS011;64571;47.512;19.054;2023-05-14T10:42:25;13.03;;;8.97;;
75890;SDS011;64571;47.512;19.054;2023-05-14T10:45:28;13.43;;;8.52;;
75890;SDS011;64571;47.512;19.054;2023-05-14T10:48:31;11.43;;;7.85;;
75890;SDS011;64571;47.512;19.054;2023-05-14T10:51:35;12.60;;;8.63;;
75890;SDS011;64571;47.512;19.054;2023-05-14T10:54:38;13.13;;;8.23;;
75890;SDS011;64571;47.512;19.054;2023-05-14T10:57:41;13.80;;;8.43;;
75890;SDS011;64571;47.512;19.054;2023-05-14T11:00:47;14.93;;;8.52;;
75890;SDS011;64571;47.512;19.054;2023-05-14T11:03:50;12.25;;;7.90;;
75890;SDS011;64571;47.512;19.054;2023-05-14T11:06:54;12.37;;;8.70;;
75890;SDS011;64571;47.512;19.054;2023-05-14T11:09:59;11.68;;;7.70;;
75890;SDS011;64571;47.512;19.054;2023-05-14T11:13:06;12.97;;;7.70;;
75890;SDS011;64571;47.512;19.054;2023-05-14T11:16:08;11.50;;;7.93;;
75890;SDS011;64571;47.512;19.054;2023-05-14T11:19:14;12.63;;;8.43;;
75890;SDS011;64571;47.512;19.054;2023-05-14T11:22:18;12.77;;;8.55;;
75890;SDS011;64571;47.512;19.054;2023-05-14T11:25:22;13.15;;;9.10;;
75890;SDS011;64571;47.512;19.054;2023-05-14T11:28:26;15.27;;;8.50;;
75890;SDS011;64571;47.512;19.054;2023-05-14T11:31:29;12.60;;;8.82;;
75890;SDS011;64571;47.512;19.054;2023-05-14T11:34:32;15.02;;;9.57;;
75890;SDS011;64571;47.512;19.054;2023-05-14T11:37:35;15.82;;;9.18;;
75890;SDS011;64571;47.512;19.054;2023-05-14T11:40:39;15.02;;;8.73;;
75890;SDS011;64571;47.512;19.054;2023-05-14T11:43:42;13.77;;;9.13;;
75890;SDS011;64571;47.512;19.054;2023-05-14T11:46:57;13.95;;;9.10;;
75890;SDS011;64571;47.512;19.054;2023-05-14T11:50:00;14.65;;;10.38;;
75890;SDS011;64571;47.512;19.054;2023-05-14T11:53:02;17.80;;;9.18;;
75890;SDS011;64571;47.512;19.054;2023-05-14T11:56:05;19.08;;;10.95;;
75890;SDS011;64571;47.512;19.054;2023-05-14T11:59:10;15.37;;;9.00;;
75890;SDS011;64571;47.512;19.054;2023-05-14T12:02:14;13.43;;;8.60;;
75890;SDS011;64571;47.512;19.054;2023-05-14T12:05:19;14.73;;;8.82;;
75890;SDS011;64571;47.512;19.054;2023-05-14T12:08:23;12.27;;;8.30;;
75890;SDS011;64571;47.512;19.054;2023-05-14T12:11:31;13.68;;;8.75;;
75890;SDS011;64571;47.512;19.054;2023-05-14T12:14:35;12.40;;;8.30;;
75890;SDS011;64571;47.512;19.054;2023-05-14T12:17:50;12.20;;;8.02;;
75890;SDS011;64571;47.512;19.054;2023-05-14T12:20:53;13.00;;;8.20;;
75890;SDS011;64571;47.512;19.054;2023-05-14T12:23:59;14.87;;;8.05;;
75890;SDS011;64571;47.512;19.054;2023-05-14T12:27:01;14.77;;;8.40;;
75890;SDS011;64571;47.512;19.054;2023-05-14T12:30:05;12.37;;;7.53;;
75890;SDS011;64571;47.512;19.054;2023-05-14T12:33:11;16.65;;;9.35;;
75890;SDS011;64571;47.512;19.054;2023-05-14T12:36:15;13.27;;;8.43;;
75890;SDS011;64571;47.512;19.054;2023-05-14T12:39:23;17.48;;;9.32;;
75890;SDS011;64571;47.512;19.054;2023-05-14T12:42:28;13.77;;;9.13;;
75890;SDS011;64571;47.512;19.054;2023-05-14T12:45:31;13.20;;;8.40;;
75890;SDS011;64571;47.512;19.054;2023-05-14T12:48:33;15.65;;;8.60;;
75890;SDS011;64571;47.512;19.054;2023-05-14T12:51:36;12.43;;;8.00;;
75890;SDS011;64571;47.512;19.054;2023-05-14T12:54:38;13.65;;;8.40;;
75890;SDS011;64571;47.512;19.054;2023-05-14T12:57:43;13.62;;;8.40;;
75890;SDS011;64571;47.512;19.054;2023-05-14T13:00:47;13.47;;;7.63;;
75890;SDS011;64571;47.512;19.054;2023-05-14T13:03:49;11.23;;;8.25;;
75890;SDS011;64571;47.512;19.054;2023-05-14T13:06:52;16.35;;;8.75;;
75890;SDS011;64571;47.512;19.054;2023-05-14T13:09:55;14.73;;;8.70;;
75890;SDS011;64571;47.512;19.054;2023-05-14T13:12:57;13.98;;;8.85;;
75890;SDS011;64571;47.512;19.054;2023-05-14T13:16:00;15.10;;;9.10;;
75890;SDS011;64571;47.512;19.054;2023-05-14T13:19:02;13.98;;;8.82;;
75890;SDS011;64571;47.512;19.054;2023-05-14T13:22:05;13.93;;;10.00;;
75890;SDS011;64571;47.512;19.054;2023-05-14T13:25:08;15.63;;;9.05;;
75890;SDS011;64571;47.512;19.054;2023-05-14T13:28:10;16.23;;;9.32;;
75890;SDS011;64571;47.512;19.054;2023-05-14T13:31:13;15.37;;;9.17;;
75890;SDS011;64571;47.512;19.054;2023-05-14T13:34:15;12.55;;;8.65;;
75890;SDS011;64571;47.512;19.054;2023-05-14T13:37:18;14.73;;;10.02;;
75890;SDS011;64571;47.512;19.054;2023-05-14T13:40:21;13.30;;;9.52;;
75890;SDS011;64571;47.512;19.054;2023-05-14T13:43:23;14.63;;;9.70;;
75890;SDS011;64571;47.512;19.054;2023-05-14T13:46:26;17.53;;;9.07;;
75890;SDS011;64571;47.512;19.054;2023-05-14T13:49:30;17.02;;;9.23;;
75890;SDS011;64571;47.512;19.054;2023-05-14T13:52:33;16.60;;;11.05;;
75890;SDS011;64571;47.512;19.054;2023-05-14T13:55:36;13.75;;;9.75;;
75890;SDS011;64571;47.512;19.054;2023-05-14T13:58:38;16.30;;;10.55;;
75890;SDS011;64571;47.512;19.054;2023-05-14T14:01:41;15.93;;;9.80;;
75890;SDS011;64571;47.512;19.054;2023-05-14T14:04:44;17.87;;;10.45;;
75890;SDS011;64571;47.512;19.054;2023-05-14T14:07:47;17.23;;;10.45;;
75890;SDS011;64571;47.512;19.054;2023-05-14T14:10:54;14.87;;;10.10;;
75890;SDS011;64571;47.512;19.054;2023-05-14T14:13:56;15.32;;;10.18;;
75890;SDS011;64571;47.512;19.054;2023-05-14T14:16:59;15.53;;;10.43;;
75890;SDS011;64571;47.512;19.054;2023-05-14T14:20:02;17.60;;;10.38;;
75890;SDS011;64571;47.512;19.054;2023-05-14T14:23:07;15.30;;;10.68;;
75890;SDS011;64571;47.512;19.054;2023-05-14T14:26:10;16.10;;;11.18;;
75890;SDS011;64571;47.512;19.054;2023-05-14T14:29:12;19.85;;;11.65;;
75890;SDS011;64571;47.512;19.054;2023-05-14T14:32:15;15.43;;;10.27;;
75890;SDS011;64571;47.512;19.054;2023-05-14T14:35:18;20.08;;;10.75;;
75890;SDS011;64571;47.512;19.054;2023-05-14T14:38:21;16.70;;;9.77;;
75890;SDS011;64571;47.512;19.054;2023-05-14T14:41:24;17.83;;;10.35;;
75890;SDS011;64571;47.512;19.054;2023-05-14T14:44:27;17.42;;;10.43;;
75890;SDS011;64571;47.512;19.054;2023-05-14T14:47:30;16.17;;;10.73;;
75890;SDS011;64571;47.512;19.054;2023-05-14T14:50:33;23.25;;;10.50;;
75890;SDS011;64571;47.512;19.054;2023-05-14T14:53:36;15.23;;;9.93;;
75890;SDS011;64571;47.512;19.054;2023-05-14T14:56:38;12.18;;;7.75;;
75890;SDS011;64571;47.512;19.054;2023-05-14T14:59:41;13.68;;;7.55;;
75890;SDS011;64571;47.512;19.054;2023-05-14T15:02:44;13.87;;;7.57;;
75890;SDS011;64571;47.512;19.054;2023-05-14T15:05:47;11.25;;;6.32;;
75890;SDS011;64571;47.512;19.054;2023-05-14T15:08:50;12.90;;;6.62;;
75890;SDS011;64571;47.512;19.054;2023-05-14T15:11:52;9.27;;;5.43;;
75890;SDS011;64571;47.512;19.054;2023-05-14T15:14:55;11.73;;;6.30;;
75890;SDS011;64571;47.512;19.054;2023-05-14T15:17:58;9.50;;;5.30;;
75890;SDS011;64571;47.512;19.054;2023-05-14T15:21:00;10.68;;;5.32;;
75890;SDS011;64571;47.512;19.054;2023-05-14T15:24:03;10.82;;;5.85;;
75890;SDS011;64571;47.512;19.054;2023-05-14T15:27:06;10.27;;;5.90;;
75890;SDS011;64571;47.512;19.054;2023-05-14T15:30:09;11.93;;;5.72;;
75890;SDS011;64571;47.512;19.054;2023-05-14T15:33:12;11.70;;;6.13;;
75890;SDS011;64571;47.512;19.054;2023-05-14T15:36:19;9.82;;;5.70;;
75890;SDS011;64571;47.512;19.054;2023-05-14T15:39:21;10.60;;;5.82;;
75890;SDS011;64571;47.512;19.054;2023-05-14T15:42:24;9.13;;;5.22;;
75890;SDS011;64571;47.512;19.054;2023-05-14T15:45:27;11.23;;;6.15;;
75890;SDS011;64571;47.512;19.054;2023-05-14T15:48:30;10.23;;;6.17;;
75890;SDS011;64571;47.512;19.054;2023-05-14T15:51:33;12.77;;;6.32;;
75890;SDS011;64571;47.512;19.054;2023-05-14T15:54:36;12.27;;;6.18;;
75890;SDS011;64571;47.512;19.054;2023-05-14T15:57:38;9.27;;;5.45;;
75890;SDS011;64571;47.512;19.054;2023-05-14T16:00:41;10.90;;;6.30;;
75890;SDS011;64571;47.512;19.054;2023-05-14T16:03:44;11.60;;;6.87;;
75890;SDS011;64571;47.512;19.054;2023-05-14T16:06:46;11.60;;;6.03;;
75890;SDS011;64571;47.512;19.054;2023-05-14T16:09:49;10.13;;;6.12;;
75890;SDS011;64571;47.512;19.054;2023-05-14T16:12:51;11.12;;;5.80;;
75890;SDS011;64571;47.512;19.054;2023-05-14T16:15:54;10.48;;;6.68;;
75890;SDS011;64571;47.512;19.054;2023-05-14T16:18:57;10.40;;;6.30;;
75890;SDS011;64571;47.512;19.054;2023-05-14T16:22:00;11.10;;;6.47;;
75890;SDS011;64571;47.512;19.054;2023-05-14T16:25:03;11.82;;;6.95;;
75890;SDS011;64571;47.512;19.054;2023-05-14T16:28:07;10.50;;;5.65;;
75890;SDS011;64571;47.512;19.054;2023-05-14T16:31:09;9.55;;;5.05;;
75890;SDS011;64571;47.512;19.054;2023-05-14T16:34:12;10.50;;;5.60;;
75890;SDS011;64571;47.512;19.054;2023-05-14T16:37:15;9.90;;;4.60;;
75890;SDS011;64571;47.512;19.054;2023-05-14T16:40:18;9.50;;;5.53;;
75890;SDS011;64571;47.512;19.054;2023-05-14T16:43:21;9.13;;;5.22;;
75890;SDS011;64571;47.512;19.054;2023-05-14T16:46:23;8.93;;;5.32;;
75890;SDS011;64571;47.512;19.054;2023-05-14T16:49:26;8.77;;;5.03;;
75890;SDS011;64571;47.512;19.054;2023-05-14T16:52:29;9.32;;;5.35;;
75890;SDS011;64571;47.512;19.054;2023-05-14T16:55:31;9.43;;;5.07;;
75890;SDS011;64571;47.512;19.054;2023-05-14T16:58:34;9.38;;;5.25;;
75890;SDS011;64571;47.512;19.054;2023-05-14T17:01:36;9.77;;;6.12;;
75890;SDS011;64571;47.512;19.054;2023-05-14T17:04:39;9.37;;;5.30;;
75890;SDS011;64571;47.512;19.054;2023-05-14T17:07:43;11.23;;;5.60;;
75890;SDS011;64571;47.512;19.054;2023-05-14T17:10:45;10.23;;;5.30;;
75890;SDS011;64571;47.512;19.054;2023-05-14T17:13:48;7.80;;;5.12;;
75890;SDS011;64571;47.512;19.054;2023-05-14T17:16:50;8.10;;;4.85;;
75890;SDS011;64571;47.512;19.054;2023-05-14T17:19:53;9.27;;;5.07;;
75890;SDS011;64571;47.512;19.054;2023-05-14T17:22:55;10.50;;;5.25;;
75890;SDS011;64571;47.512;19.054;2023-05-14T17:25:58;9.50;;;5.35;;
75890;SDS011;64571;47.512;19.054;2023-05-14T17:29:00;9.55;;;5.40;;
75890;SDS011;64571;47.512;19.054;2023-05-14T17:32:03;10.00;;;5.12;;
75890;SDS011;64571;47.512;19.054;2023-05-14T17:35:06;8.97;;;5.40;;
75890;SDS011;64571;47.512;19.054;2023-05-14T17:38:10;13.60;;;6.35;;
75890;SDS011;64571;47.512;19.054;2023-05-14T17:41:13;10.13;;;6.18;;
75890;SDS011;64571;47.512;19.054;2023-05-14T17:44:15;10.23;;;6.78;;
75890;SDS011;64571;47.512;19.054;2023-05-14T17:47:18;9.43;;;5.80;;
75890;SDS011;64571;47.512;19.054;2023-05-14T17:50:21;11.67;;;6.80;;
75890;SDS011;64571;47.512;19.054;2023-05-14T17:53:24;11.95;;;7.40;;
75890;SDS011;64571;47.512;19.054;2023-05-14T17:56:26;10.45;;;6.93;;
75890;SDS011;64571;47.512;19.054;2023-05-14T17:59:29;14.00;;;6.57;;
75890;SDS011;64571;47.512;19.054;2023-05-14T18:02:31;10.90;;;6.65;;
75890;SDS011;64571;47.512;19.054;2023-05-14T18:05:34;12.63;;;6.47;;